Fairfax, Minnesota
Current Conditions -  °F | °C
As of 5:53 AM on Monday 26 Jan 2015 (Local Time) from KRWF Reporting Station
Clear Clear  
Wind Chill: 26°   Ceiling: Unl
Heat Index: 36°   Visibility: 10mi
Dew Point: 31°   Wind: 17mph
Humidity: 82%   Direction: 240°WSW
Pressure: 29.68"   Gusts: NA
Location:  44.53°N, 94.72°W
Report Text: KRWF 261153Z AUTO 24015KT 10SM CLR 02/M01 A2968 RMK AO2 PK WND 23029/1120 UPE1055 SLP062 P0000 60000 T00221006 10022 21006 55042
Loading
Personal Weather Stations






























Interactive Weather Map New forecast layout! Learn more

10-Day Weather Forecast

Advertisements
Track Severe Weather on mobile